createdAt,value
2017-08-29T00:00:00.884Z,797.63
2017-08-29T00:00:05.093Z,797.57
2017-08-29T00:00:09.189Z,797.62
2017-08-29T00:00:13.274Z,797.63
2017-08-29T00:00:17.247Z,797.65
2017-08-29T00:00:21.080Z,797.6
2017-08-29T00:00:25.169Z,797.61
2017-08-29T00:00:29.138Z,797.6
2017-08-29T00:00:33.105Z,797.63
2017-08-29T00:00:37.173Z,797.64
2017-08-29T00:00:41.150Z,797.6
2017-08-29T00:00:45.371Z,797.62
2017-08-29T00:00:49.333Z,797.62
2017-08-29T00:00:53.423Z,797.57
2017-08-29T00:00:57.650Z,797.58
2017-08-29T00:01:01.751Z,797.64
2017-08-29T00:01:06.098Z,797.62
2017-08-29T00:01:10.317Z,797.55
2017-08-29T00:01:14.792Z,797.61
2017-08-29T00:01:18.999Z,797.6
2017-08-29T00:01:22.949Z,797.59
2017-08-29T00:01:26.915Z,797.6
2017-08-29T00:01:31.005Z,797.6
2017-08-29T00:01:34.968Z,797.57
2017-08-29T00:01:39.067Z,797.6
2017-08-29T00:01:43.038Z,797.59
2017-08-29T00:01:47.253Z,797.52
2017-08-29T00:01:51.477Z,797.61
2017-08-29T00:01:55.434Z,797.6
2017-08-29T00:01:59.638Z,797.6
2017-08-29T00:02:03.851Z,797.61
2017-08-29T00:02:07.689Z,797.6
2017-08-29T00:02:11.768Z,797.57
2017-08-29T00:02:15.722Z,797.54
2017-08-29T00:02:19.927Z,797.54
2017-08-29T00:02:23.643Z,797.55
2017-08-29T00:02:27.851Z,797.59
2017-08-29T00:02:32.300Z,797.6
2017-08-29T00:02:36.381Z,797.57
2017-08-29T00:02:40.839Z,797.56
2017-08-29T00:02:45.196Z,797.58
2017-08-29T00:02:49.545Z,797.58
2017-08-29T00:02:53.651Z,797.59
2017-08-29T00:02:58.115Z,797.54
2017-08-29T00:03:02.368Z,797.59
2017-08-29T00:03:06.451Z,797.57
2017-08-29T00:03:10.406Z,797.57
2017-08-29T00:03:14.756Z,797.56
2017-08-29T00:03:18.734Z,797.55
2017-08-29T00:03:22.971Z,797.58
2017-08-29T00:03:27.316Z,797.57
2017-08-29T00:03:31.778Z,797.56
2017-08-29T00:03:35.979Z,797.54
2017-08-29T00:03:40.317Z,797.54
2017-08-29T00:03:44.418Z,797.53
2017-08-29T00:03:48.498Z,797.55
2017-08-29T00:03:52.594Z,797.52
2017-08-29T00:03:56.812Z,797.54
2017-08-29T00:04:01.024Z,797.54
2017-08-29T00:04:05.704Z,797.54
2017-08-29T00:04:09.786Z,797.53
2017-08-29T00:04:13.872Z,797.54
2017-08-29T00:04:17.965Z,797.54
2017-08-29T00:04:21.932Z,797.53
2017-08-29T00:04:25.893Z,797.52
2017-08-29T00:04:29.996Z,797.53
2017-08-29T00:04:34.086Z,797.51
2017-08-29T00:04:38.285Z,797.52
2017-08-29T00:04:42.383Z,797.47
2017-08-29T00:04:46.481Z,797.51
2017-08-29T00:04:50.683Z,797.51
2017-08-29T00:04:55.138Z,797.51
2017-08-29T00:04:59.362Z,797.51
2017-08-29T00:05:03.691Z,797.51
2017-08-29T00:05:07.910Z,797.49
2017-08-29T00:05:12.005Z,797.48
2017-08-29T00:05:16.106Z,797.51
2017-08-29T00:05:20.057Z,797.45
2017-08-29T00:05:24.157Z,797.48
2017-08-29T00:05:28.624Z,797.5
2017-08-29T00:05:32.966Z,797.5
2017-08-29T00:05:37.209Z,797.53
2017-08-29T00:05:40.910Z,797.54
2017-08-29T00:05:44.999Z,797.5
2017-08-29T00:05:48.853Z,797.5
2017-08-29T00:05:53.204Z,797.51
2017-08-29T00:05:57.414Z,797.51
2017-08-29T00:06:01.511Z,797.51
2017-08-29T00:06:05.722Z,797.47
2017-08-29T00:06:09.946Z,797.48
2017-08-29T00:06:14.177Z,797.5
2017-08-29T00:06:18.516Z,797.49
2017-08-29T00:06:22.604Z,797.49
2017-08-29T00:06:26.693Z,797.49
2017-08-29T00:06:31.030Z,797.52
2017-08-29T00:06:35.230Z,797.49
2017-08-29T00:06:39.298Z,797.5
2017-08-29T00:06:43.257Z,797.49
2017-08-29T00:06:47.477Z,797.51
2017-08-29T00:06:51.559Z,797.5
2017-08-29T00:06:55.885Z,797.48
2017-08-29T00:06:59.849Z,797.48
2017-08-29T00:07:03.942Z,797.5
2017-08-29T00:07:08.035Z,797.49
2017-08-29T00:07:12.127Z,797.49
2017-08-29T00:07:16.326Z,797.49
2017-08-29T00:07:20.411Z,797.49
2017-08-29T00:07:24.482Z,797.44
2017-08-29T00:07:28.697Z,797.44
2017-08-29T00:07:32.665Z,797.47
2017-08-29T00:07:36.872Z,797.45
2017-08-29T00:07:41.074Z,797.45
2017-08-29T00:07:45.289Z,797.49
2017-08-29T00:07:49.629Z,797.46
2017-08-29T00:07:53.847Z,797.47
2017-08-29T00:07:57.936Z,797.42
2017-08-29T00:08:02.151Z,797.47
2017-08-29T00:08:06.493Z,797.48
2017-08-29T00:08:10.581Z,797.48
2017-08-29T00:08:14.678Z,797.48
2017-08-29T00:08:18.765Z,797.47
2017-08-29T00:08:22.732Z,797.46
2017-08-29T00:08:26.570Z,797.45
2017-08-29T00:08:30.784Z,797.48
2017-08-29T00:08:34.996Z,797.48
2017-08-29T00:08:39.073Z,797.44
2017-08-29T00:08:43.285Z,797.49
2017-08-29T00:08:47.261Z,797.42
2017-08-29T00:08:51.352Z,797.45
2017-08-29T00:08:55.429Z,797.46
2017-08-29T00:08:59.387Z,797.46
2017-08-29T00:09:03.594Z,797.5
2017-08-29T00:09:07.564Z,797.48
2017-08-29T00:09:11.536Z,797.49
2017-08-29T00:09:15.618Z,797.52
2017-08-29T00:09:19.714Z,797.51
2017-08-29T00:09:24.045Z,797.51
2017-08-29T00:09:27.879Z,797.48
2017-08-29T00:09:32.108Z,797.49
2017-08-29T00:09:36.072Z,797.48
2017-08-29T00:09:40.149Z,797.49
2017-08-29T00:09:44.373Z,797.46
2017-08-29T00:09:48.572Z,797.44
2017-08-29T00:09:52.771Z,797.47
2017-08-29T00:09:56.492Z,797.44
2017-08-29T00:10:00.581Z,797.48
2017-08-29T00:10:04.932Z,797.46
2017-08-29T00:10:09.027Z,797.45
2017-08-29T00:10:13.361Z,797.47
2017-08-29T00:10:17.698Z,797.43
2017-08-29T00:10:21.924Z,797.46
2017-08-29T00:10:26.135Z,797.45
2017-08-29T00:10:30.349Z,797.46
2017-08-29T00:10:34.575Z,797.43
2017-08-29T00:10:38.808Z,797.47
2017-08-29T00:10:43.035Z,797.44
2017-08-29T00:10:47.358Z,797.47
2017-08-29T00:10:51.702Z,797.48
2017-08-29T00:10:55.682Z,797.46
2017-08-29T00:10:59.890Z,797.45
2017-08-29T00:11:04.276Z,797.45
2017-08-29T00:11:08.485Z,797.47
2017-08-29T00:11:12.711Z,797.45
2017-08-29T00:11:16.789Z,797.46
2017-08-29T00:11:21.105Z,797.48
2017-08-29T00:11:25.175Z,797.49
2017-08-29T00:11:29.387Z,797.46
2017-08-29T00:11:33.472Z,797.46
2017-08-29T00:11:37.677Z,797.46
2017-08-29T00:11:42.017Z,797.43
2017-08-29T00:11:45.982Z,797.44
2017-08-29T00:11:50.187Z,797.46
2017-08-29T00:11:54.264Z,797.45
2017-08-29T00:11:58.340Z,797.45
2017-08-29T00:12:02.653Z,797.43
2017-08-29T00:12:06.746Z,797.45
2017-08-29T00:12:10.697Z,797.4
2017-08-29T00:12:14.923Z,797.45
2017-08-29T00:12:19.143Z,797.45
2017-08-29T00:12:23.357Z,797.44
2017-08-29T00:12:27.458Z,797.46
2017-08-29T00:12:31.570Z,797.43
2017-08-29T00:12:35.779Z,797.39
2017-08-29T00:12:39.878Z,797.45
2017-08-29T00:12:43.844Z,797.46
2017-08-29T00:12:48.169Z,797.42
2017-08-29T00:12:52.505Z,797.45
2017-08-29T00:12:56.599Z,797.42
2017-08-29T00:13:00.676Z,797.47
2017-08-29T00:13:04.508Z,797.45
2017-08-29T00:13:08.860Z,797.43
2017-08-29T00:13:13.201Z,797.45
2017-08-29T00:13:17.292Z,797.47
2017-08-29T00:13:21.248Z,797.46
2017-08-29T00:13:25.199Z,797.44
2017-08-29T00:13:29.428Z,797.45
2017-08-29T00:13:33.383Z,797.44
2017-08-29T00:13:37.598Z,797.46
2017-08-29T00:13:41.942Z,797.39
2017-08-29T00:13:46.266Z,797.46
2017-08-29T00:13:50.597Z,797.45
2017-08-29T00:13:54.566Z,797.42
2017-08-29T00:13:58.525Z,797.4
2017-08-29T00:14:02.487Z,797.42
2017-08-29T00:14:06.450Z,797.44
2017-08-29T00:14:10.553Z,797.44
2017-08-29T00:14:14.766Z,797.41
2017-08-29T00:14:18.978Z,797.42
2017-08-29T00:14:23.071Z,797.45
2017-08-29T00:14:27.160Z,797.44
2017-08-29T00:14:31.508Z,797.42
2017-08-29T00:14:36.150Z,797.4
2017-08-29T00:14:40.345Z,797.37
2017-08-29T00:14:44.313Z,797.43
2017-08-29T00:14:48.418Z,797.43
2017-08-29T00:14:52.498Z,797.43
2017-08-29T00:14:56.699Z,797.4
2017-08-29T00:15:00.801Z,797.42
2017-08-29T00:15:05.329Z,797.41
2017-08-29T00:15:09.541Z,797.41
2017-08-29T00:15:13.513Z,797.43
2017-08-29T00:15:17.845Z,797.38
2017-08-29T00:15:22.193Z,797.4
2017-08-29T00:15:26.289Z,797.45
2017-08-29T00:15:30.519Z,797.42
2017-08-29T00:15:34.490Z,797.4
2017-08-29T00:15:38.959Z,797.41
2017-08-29T00:15:43.174Z,797.4
2017-08-29T00:15:47.131Z,797.4
2017-08-29T00:16:23.325Z,797.41
2017-08-29T00:16:27.539Z,797.43
2017-08-29T00:16:31.520Z,797.43
2017-08-29T00:16:35.609Z,797.42
2017-08-29T00:16:39.954Z,797.39
2017-08-29T00:16:44.054Z,797.43
2017-08-29T00:16:48.275Z,797.38
2017-08-29T00:16:52.361Z,797.38
2017-08-29T00:16:56.322Z,797.41
2017-08-29T00:17:00.152Z,797.48
2017-08-29T00:17:04.433Z,797.4
2017-08-29T00:17:08.518Z,797.43
2017-08-29T00:17:12.607Z,797.4
2017-08-29T00:17:16.701Z,797.46
2017-08-29T00:17:20.905Z,797.42
2017-08-29T00:17:25.115Z,797.44
2017-08-29T00:17:29.450Z,797.45
2017-08-29T00:17:33.426Z,797.42
2017-08-29T00:17:37.402Z,797.42
2017-08-29T00:17:41.465Z,797.45
2017-08-29T00:17:45.795Z,797.42
2017-08-29T00:17:49.629Z,797.4
2017-08-29T00:17:53.848Z,797.41
2017-08-29T00:17:57.575Z,797.4
2017-08-29T00:18:01.931Z,797.39
2017-08-29T00:18:06.163Z,797.35
2017-08-29T00:18:10.249Z,797.4
2017-08-29T00:18:14.475Z,797.4
2017-08-29T00:18:18.683Z,797.41
2017-08-29T00:18:22.769Z,797.38
2017-08-29T00:18:26.991Z,797.39
2017-08-29T00:18:31.211Z,797.39
2017-08-29T00:18:35.187Z,797.39
2017-08-29T00:18:39.022Z,797.41
2017-08-29T00:18:43.236Z,797.42
2017-08-29T00:18:47.344Z,797.39
2017-08-29T00:18:51.600Z,797.38
2017-08-29T00:18:55.557Z,797.39
2017-08-29T00:18:59.769Z,797.38
2017-08-29T00:19:03.865Z,797.4
2017-08-29T00:19:07.943Z,797.4
2017-08-29T00:19:11.921Z,797.37
2017-08-29T00:19:15.770Z,797.4
2017-08-29T00:19:19.616Z,797.4
2017-08-29T00:19:23.828Z,797.41
2017-08-29T00:19:28.296Z,797.38
2017-08-29T00:19:32.391Z,797.37
2017-08-29T00:19:36.605Z,797.38
2017-08-29T00:19:40.552Z,797.39
2017-08-29T00:19:44.382Z,797.38
2017-08-29T00:19:48.470Z,797.38
2017-08-29T00:19:52.808Z,797.4
2017-08-29T00:19:57.157Z,797.39
2017-08-29T00:20:01.378Z,797.4
2017-08-29T00:20:05.360Z,797.42
2017-08-29T00:20:09.574Z,797.38
2017-08-29T00:20:13.670Z,797.38
2017-08-29T00:20:17.899Z,797.38
2017-08-29T00:20:21.987Z,797.41
2017-08-29T00:20:26.069Z,797.33
2017-08-29T00:20:30.173Z,797.38
2017-08-29T00:20:34.378Z,797.42
2017-08-29T00:20:38.593Z,797.41
2017-08-29T00:20:42.657Z,797.39
2017-08-29T00:20:46.878Z,797.41
2017-08-29T00:20:50.734Z,797.4
2017-08-29T00:20:55.091Z,797.38
2017-08-29T00:20:59.182Z,797.38
2017-08-29T00:21:03.698Z,797.39
2017-08-29T00:21:07.922Z,797.38
2017-08-29T00:21:12.014Z,797.35
2017-08-29T00:21:16.326Z,797.34
2017-08-29T00:21:20.398Z,797.35
2017-08-29T00:21:24.736Z,797.38
2017-08-29T00:21:28.807Z,797.39
2017-08-29T00:21:33.032Z,797.39
2017-08-29T00:21:37.400Z,797.39
2017-08-29T00:21:41.373Z,797.38
2017-08-29T00:21:45.476Z,797.37
2017-08-29T00:21:49.302Z,797.39
2017-08-29T00:21:53.640Z,797.37
2017-08-29T00:21:57.852Z,797.34
2017-08-29T00:22:02.293Z,797.36
2017-08-29T00:22:06.146Z,797.38
2017-08-29T00:22:10.106Z,797.37
2017-08-29T00:22:14.081Z,797.38
2017-08-29T00:22:17.902Z,797.38
2017-08-29T00:22:21.870Z,797.37
2017-08-29T00:22:26.104Z,797.33
2017-08-29T00:22:30.320Z,797.39
2017-08-29T00:22:34.280Z,797.36
2017-08-29T00:22:38.368Z,797.4
2017-08-29T00:22:42.331Z,797.35
2017-08-29T00:22:46.291Z,797.34
2017-08-29T00:22:50.742Z,797.33
2017-08-29T00:22:54.941Z,797.34
2017-08-29T00:22:59.149Z,797.38
2017-08-29T00:23:03.354Z,797.4
2017-08-29T00:23:07.432Z,797.33
2017-08-29T00:23:11.631Z,797.4
2017-08-29T00:23:15.838Z,797.4
2017-08-29T00:23:20.174Z,797.41
2017-08-29T00:23:24.142Z,797.41
2017-08-29T00:23:28.476Z,797.41
2017-08-29T00:23:32.698Z,797.41
2017-08-29T00:23:36.671Z,797.42
2017-08-29T00:23:40.893Z,797.36
2017-08-29T00:23:44.985Z,797.39
2017-08-29T00:23:48.935Z,797.36
2017-08-29T00:23:52.787Z,797.39
2017-08-29T00:23:57.145Z,797.39
2017-08-29T00:24:01.336Z,797.38
2017-08-29T00:24:05.547Z,797.41
2017-08-29T00:24:09.641Z,797.41
2017-08-29T00:24:13.877Z,797.4
2017-08-29T00:24:17.966Z,797.41
2017-08-29T00:24:22.197Z,797.4
2017-08-29T00:24:26.152Z,797.39
2017-08-29T00:24:30.245Z,797.38
2017-08-29T00:24:34.446Z,797.4
2017-08-29T00:24:38.638Z,797.38
2017-08-29T00:24:42.977Z,797.4
2017-08-29T00:24:46.828Z,797.39
2017-08-29T00:24:50.923Z,797.39
2017-08-29T00:24:55.272Z,797.4
2017-08-29T00:24:59.239Z,797.42
2017-08-29T00:25:03.586Z,797.4
2017-08-29T00:25:07.812Z,797.4
2017-08-29T00:25:11.761Z,797.38
2017-08-29T00:25:15.846Z,797.39
2017-08-29T00:25:20.177Z,797.39
2017-08-29T00:25:24.017Z,797.44
2017-08-29T00:25:28.235Z,797.4
2017-08-29T00:25:32.196Z,797.42
2017-08-29T00:25:36.285Z,797.42
2017-08-29T00:25:40.756Z,797.39
2017-08-29T00:25:45.096Z,797.36
2017-08-29T00:25:49.178Z,797.38
2017-08-29T00:25:53.151Z,797.39
2017-08-29T00:25:57.244Z,797.39
2017-08-29T00:26:01.579Z,797.37
2017-08-29T00:26:06.215Z,797.35
2017-08-29T00:26:10.435Z,797.34
2017-08-29T00:26:14.818Z,797.4
2017-08-29T00:26:19.170Z,797.39
2017-08-29T00:26:23.136Z,797.39
2017-08-29T00:26:27.350Z,797.39
2017-08-29T00:26:31.590Z,797.43
2017-08-29T00:26:35.938Z,797.4
2017-08-29T00:26:39.903Z,797.39
2017-08-29T00:26:44.379Z,797.4
2017-08-29T00:26:48.237Z,797.4
2017-08-29T00:26:52.202Z,797.38
2017-08-29T00:26:56.536Z,797.34
2017-08-29T00:27:00.766Z,797.39
2017-08-29T00:27:05.407Z,797.34
2017-08-29T00:27:09.359Z,797.38
2017-08-29T00:27:13.440Z,797.38
2017-08-29T00:27:17.763Z,797.41
2017-08-29T00:27:21.601Z,797.38
2017-08-29T00:27:25.430Z,797.39
2017-08-29T00:27:29.520Z,797.34
2017-08-29T00:27:33.473Z,797.4
2017-08-29T00:27:37.812Z,797.38
2017-08-29T00:27:42.145Z,797.39
2017-08-29T00:27:46.223Z,797.41
2017-08-29T00:27:50.185Z,797.35
2017-08-29T00:27:54.152Z,797.4
2017-08-29T00:27:58.266Z,797.42
2017-08-29T00:28:02.373Z,797.4
2017-08-29T00:28:06.707Z,797.38
2017-08-29T00:28:10.811Z,797.4
2017-08-29T00:28:14.781Z,797.39
2017-08-29T00:28:19.004Z,797.38
2017-08-29T00:28:23.093Z,797.38
2017-08-29T00:28:27.163Z,797.36
2017-08-29T00:28:31.378Z,797.35
2017-08-29T00:28:35.582Z,797.35
2017-08-29T00:28:39.908Z,797.39
2017-08-29T00:28:44.119Z,797.37
2017-08-29T00:28:48.081Z,797.36
2017-08-29T00:28:51.921Z,797.36
2017-08-29T00:28:56.010Z,797.39
2017-08-29T00:29:00.339Z,797.34
2017-08-29T00:29:04.565Z,797.38
2017-08-29T00:29:08.775Z,797.38
2017-08-29T00:29:12.984Z,797.35
2017-08-29T00:29:17.197Z,797.3
2017-08-29T00:29:21.151Z,797.35
2017-08-29T00:29:25.236Z,797.36
2017-08-29T00:29:29.358Z,797.36
2017-08-29T00:29:33.410Z,797.38
2017-08-29T00:29:37.585Z,797.33
2017-08-29T00:29:41.550Z,797.29
2017-08-29T00:29:45.780Z,797.34
2017-08-29T00:29:50.270Z,797.36
2017-08-29T00:29:54.368Z,797.32
2017-08-29T00:29:58.458Z,797.34
2017-08-29T00:30:02.540Z,797.33
2017-08-29T00:30:06.496Z,797.33
2017-08-29T00:30:10.835Z,797.35
2017-08-29T00:30:15.337Z,797.33
2017-08-29T00:30:19.557Z,797.34
2017-08-29T00:30:23.909Z,797.31
2017-08-29T00:30:28.378Z,797.3
2017-08-29T00:30:32.837Z,797.34
2017-08-29T00:30:37.162Z,797.33
2017-08-29T00:30:41.369Z,797.33
2017-08-29T00:30:45.612Z,797.33
2017-08-29T00:30:49.711Z,797.3
2017-08-29T00:30:53.926Z,797.32
2017-08-29T00:30:58.254Z,797.25
2017-08-29T00:31:02.665Z,797.31
2017-08-29T00:31:06.876Z,797.29
2017-08-29T00:31:11.208Z,797.32
2017-08-29T00:31:15.561Z,797.3
2017-08-29T00:31:19.648Z,797.33
2017-08-29T00:31:23.863Z,797.32
2017-08-29T00:31:28.204Z,797.32
2017-08-29T00:31:32.287Z,797.26
2017-08-29T00:31:36.489Z,797.27
2017-08-29T00:31:40.838Z,797.29
2017-08-29T00:31:44.932Z,797.3
2017-08-29T00:31:49.037Z,797.3
2017-08-29T00:31:53.248Z,797.29
2017-08-29T00:31:57.449Z,797.28
2017-08-29T00:32:01.546Z,797.28
2017-08-29T00:32:05.781Z,797.31
2017-08-29T00:32:09.869Z,797.27
2017-08-29T00:32:13.941Z,797.27
2017-08-29T00:32:18.171Z,797.28
2017-08-29T00:32:22.265Z,797.3
2017-08-29T00:32:26.474Z,797.28
2017-08-29T00:32:30.434Z,797.29
2017-08-29T00:32:34.640Z,797.21
2017-08-29T00:32:38.854Z,797.28
2017-08-29T00:32:43.185Z,797.29
2017-08-29T00:32:47.387Z,797.26
2017-08-29T00:32:51.596Z,797.23
2017-08-29T00:32:55.670Z,797.27
2017-08-29T00:32:59.758Z,797.3
2017-08-29T00:33:03.733Z,797.28
2017-08-29T00:33:08.075Z,797.29
2017-08-29T00:33:11.903Z,797.28
2017-08-29T00:33:15.994Z,797.24
2017-08-29T00:33:20.079Z,797.25
2017-08-29T00:33:24.182Z,797.27
2017-08-29T00:33:28.517Z,797.26
2017-08-29T00:33:32.611Z,797.25
2017-08-29T00:33:36.725Z,797.23
2017-08-29T00:33:40.690Z,797.25
2017-08-29T00:33:45.019Z,797.24
2017-08-29T00:33:49.101Z,797.21
2017-08-29T00:33:52.949Z,797.19
2017-08-29T00:33:56.791Z,797.22
2017-08-29T00:34:00.753Z,797.24
2017-08-29T00:34:05.088Z,797.23
2017-08-29T00:34:09.186Z,797.25
2017-08-29T00:34:13.270Z,797.22
2017-08-29T00:34:17.473Z,797.25
2017-08-29T00:34:21.557Z,797.24
2017-08-29T00:34:25.768Z,797.24
2017-08-29T00:34:30.098Z,797.2
2017-08-29T00:34:34.316Z,797.22
2017-08-29T00:34:38.533Z,797.22
2017-08-29T00:34:42.373Z,797.2
2017-08-29T00:34:46.455Z,797.22
2017-08-29T00:34:50.411Z,797.23
2017-08-29T00:34:54.492Z,797.19
2017-08-29T00:34:58.579Z,797.21
2017-08-29T00:35:02.920Z,797.2
2017-08-29T00:35:07.260Z,797.21
2017-08-29T00:35:11.384Z,797.22
2017-08-29T00:35:15.353Z,797.19
2017-08-29T00:35:19.697Z,797.22
2017-08-29T00:35:23.531Z,797.18
2017-08-29T00:35:27.873Z,797.21
2017-08-29T00:35:32.083Z,797.18
2017-08-29T00:35:36.309Z,797.2
2017-08-29T00:35:40.513Z,797.19
2017-08-29T00:35:44.733Z,797.18
2017-08-29T00:35:48.941Z,797.2
2017-08-29T00:35:53.023Z,797.2
2017-08-29T00:35:57.108Z,797.16
2017-08-29T00:36:01.315Z,797.17
2017-08-29T00:36:05.521Z,797.18
2017-08-29T00:36:09.749Z,797.18
2017-08-29T00:36:13.977Z,797.22
2017-08-29T00:36:18.066Z,797.17
2017-08-29T00:36:22.408Z,797.17
2017-08-29T00:36:26.748Z,797.18
2017-08-29T00:36:31.118Z,797.2
2017-08-29T00:36:35.227Z,797.18
2017-08-29T00:36:39.307Z,797.14
2017-08-29T00:36:43.514Z,797.13
2017-08-29T00:36:47.489Z,797.15
2017-08-29T00:36:51.709Z,797.1
2017-08-29T00:36:55.821Z,797.15
2017-08-29T00:36:59.915Z,797.14
2017-08-29T00:37:04.129Z,797.14
2017-08-29T00:37:08.227Z,797.17
2017-08-29T00:37:12.203Z,797.16
2017-08-29T00:37:16.420Z,797.13
2017-08-29T00:37:20.643Z,797.13
2017-08-29T00:37:24.733Z,797.14
2017-08-29T00:37:28.933Z,797.12
2017-08-29T00:37:33.144Z,797.15
2017-08-29T00:37:37.456Z,797.13
2017-08-29T00:37:41.541Z,797.15
2017-08-29T00:37:46.013Z,797.11
2017-08-29T00:37:50.210Z,797.13
2017-08-29T00:37:54.537Z,797.12
2017-08-29T00:37:58.496Z,797.09
2017-08-29T00:38:02.892Z,797.09
2017-08-29T00:38:07.280Z,797.09
2017-08-29T00:38:11.235Z,797.08
2017-08-29T00:38:15.193Z,797.08
2017-08-29T00:38:19.406Z,797.09
2017-08-29T00:38:23.753Z,797.12
2017-08-29T00:38:27.831Z,797.1
2017-08-29T00:38:31.920Z,797.1
2017-08-29T00:38:36.139Z,797.1
2017-08-29T00:38:40.104Z,797.1
2017-08-29T00:38:44.180Z,797.11
2017-08-29T00:38:48.407Z,797.13
2017-08-29T00:38:52.626Z,797.09
2017-08-29T00:38:56.583Z,797.08
2017-08-29T00:39:00.919Z,797.1
2017-08-29T00:39:05.091Z,797.06
2017-08-29T00:39:09.307Z,797.1
2017-08-29T00:39:13.413Z,797.09
2017-08-29T00:39:17.616Z,797.08
2017-08-29T00:39:21.840Z,797.09
2017-08-29T00:39:25.918Z,797.06
2017-08-29T00:39:29.894Z,797.05
2017-08-29T00:39:33.868Z,797.08
2017-08-29T00:39:38.079Z,797.05
2017-08-29T00:39:42.411Z,797.03
2017-08-29T00:39:46.641Z,797.09
2017-08-29T00:39:50.981Z,797.07
2017-08-29T00:39:55.188Z,797.04
2017-08-29T00:39:59.157Z,797.04
2017-08-29T00:40:03.350Z,797.06
2017-08-29T00:40:07.450Z,797.06
2017-08-29T00:40:11.668Z,797.08
2017-08-29T00:40:16.133Z,797.07
2017-08-29T00:40:20.358Z,797.06
2017-08-29T00:40:24.200Z,797.05
2017-08-29T00:40:28.418Z,797.05
2017-08-29T00:40:32.376Z,797.02
2017-08-29T00:40:36.584Z,797.04
2017-08-29T00:40:40.674Z,797.04
2017-08-29T00:40:44.629Z,797.06
2017-08-29T00:40:48.832Z,797.08
2017-08-29T00:40:52.792Z,797.05
2017-08-29T00:40:57.011Z,797.02
2017-08-29T00:41:01.345Z,797.03
2017-08-29T00:41:05.564Z,797.04
2017-08-29T00:41:09.662Z,796.98
2017-08-29T00:41:13.881Z,796.96
2017-08-29T00:41:18.338Z,797
2017-08-29T00:41:22.302Z,797.03
2017-08-29T00:41:26.392Z,797.06
2017-08-29T00:41:30.599Z,796.98
2017-08-29T00:41:34.815Z,796.97
2017-08-29T00:41:38.916Z,797.02
2017-08-29T00:41:42.889Z,797.02
2017-08-29T00:41:46.984Z,797.01
2017-08-29T00:41:50.940Z,797
2017-08-29T00:41:55.027Z,797.03
2017-08-29T00:41:59.123Z,797.01
2017-08-29T00:42:03.203Z,796.97
2017-08-29T00:42:07.291Z,797.01
2017-08-29T00:42:11.384Z,796.97
2017-08-29T00:42:15.759Z,796.99
2017-08-29T00:42:19.852Z,797.02
2017-08-29T00:42:23.813Z,796.94
2017-08-29T00:42:27.907Z,796.93
2017-08-29T00:42:32.353Z,796.98
2017-08-29T00:42:36.691Z,797.01
2017-08-29T00:42:41.030Z,796.99
2017-08-29T00:42:45.395Z,797.02
2017-08-29T00:42:49.499Z,797
2017-08-29T00:42:53.347Z,796.96
2017-08-29T00:42:57.304Z,796.97
2017-08-29T00:43:01.397Z,796.94
2017-08-29T00:43:05.592Z,796.98
2017-08-29T00:43:09.699Z,796.96
2017-08-29T00:43:14.057Z,796.97
2017-08-29T00:43:18.275Z,797
2017-08-29T00:43:22.229Z,797.01
2017-08-29T00:43:26.075Z,796.9
2017-08-29T00:43:30.405Z,796.96
2017-08-29T00:43:34.478Z,796.99
2017-08-29T00:43:38.809Z,796.98
2017-08-29T00:43:42.654Z,796.92
2017-08-29T00:43:46.993Z,796.97
2017-08-29T00:43:51.212Z,796.97
2017-08-29T00:43:55.416Z,796.93
2017-08-29T00:43:59.637Z,796.93
2017-08-29T00:44:04.319Z,796.92
2017-08-29T00:44:08.276Z,796.9
2017-08-29T00:44:12.346Z,796.95
2017-08-29T00:44:16.425Z,796.96
2017-08-29T00:44:20.517Z,796.95
2017-08-29T00:44:24.626Z,796.93
2017-08-29T00:44:28.596Z,796.95
2017-08-29T00:44:32.933Z,796.96
2017-08-29T00:44:37.165Z,796.93
2017-08-29T00:44:41.504Z,796.96
2017-08-29T00:44:45.470Z,796.95
2017-08-29T00:44:49.545Z,796.96
2017-08-29T00:44:53.636Z,796.93
2017-08-29T00:44:57.738Z,796.94
2017-08-29T00:45:02.015Z,796.95
2017-08-29T00:45:06.216Z,796.92
2017-08-29T00:45:10.057Z,796.93
2017-08-29T00:45:14.154Z,796.91
2017-08-29T00:45:18.100Z,796.96
2017-08-29T00:45:54.288Z,796.91
2017-08-29T00:45:58.258Z,796.91
2017-08-29T00:46:02.579Z,796.88
2017-08-29T00:46:07.034Z,796.88
2017-08-29T00:46:11.002Z,796.91
2017-08-29T00:46:14.965Z,796.89
2017-08-29T00:46:19.050Z,796.88
2017-08-29T00:46:23.147Z,796.92
2017-08-29T00:46:27.233Z,796.88
2017-08-29T00:46:31.311Z,796.9
2017-08-29T00:46:35.271Z,796.86
2017-08-29T00:46:39.622Z,796.87
2017-08-29T00:46:43.590Z,796.91
2017-08-29T00:46:47.818Z,796.9
2017-08-29T00:46:51.916Z,796.9
2017-08-29T00:46:56.137Z,796.85
2017-08-29T00:47:00.094Z,796.87
2017-08-29T00:47:04.418Z,796.91
2017-08-29T00:47:08.362Z,796.92
2017-08-29T00:47:12.336Z,796.9
2017-08-29T00:47:16.432Z,796.87
2017-08-29T00:47:20.523Z,796.89
2017-08-29T00:47:24.738Z,796.83
2017-08-29T00:47:28.820Z,796.88
2017-08-29T00:47:33.030Z,796.87
2017-08-29T00:47:37.119Z,796.89
2017-08-29T00:47:41.216Z,796.87
2017-08-29T00:47:45.290Z,796.83
2017-08-29T00:47:49.626Z,796.85
2017-08-29T00:47:53.720Z,796.85
2017-08-29T00:47:58.185Z,796.85
2017-08-29T00:48:02.518Z,796.86
2017-08-29T00:48:06.351Z,796.87
2017-08-29T00:48:10.564Z,796.85
2017-08-29T00:48:14.656Z,796.83
2017-08-29T00:48:18.603Z,796.84
2017-08-29T00:48:22.813Z,796.85
2017-08-29T00:48:27.037Z,796.83
2017-08-29T00:48:31.237Z,796.85
2017-08-29T00:48:35.205Z,796.85
2017-08-29T00:48:39.291Z,796.82
2017-08-29T00:48:43.248Z,796.87
2017-08-29T00:48:47.193Z,796.83
2017-08-29T00:48:51.412Z,796.85
2017-08-29T00:48:55.762Z,796.83
2017-08-29T00:48:59.863Z,796.81
2017-08-29T00:49:04.085Z,796.83
2017-08-29T00:49:08.426Z,796.85
2017-08-29T00:49:12.507Z,796.84
2017-08-29T00:49:16.834Z,796.81
2017-08-29T00:49:21.037Z,796.81
2017-08-29T00:49:25.248Z,796.82
2017-08-29T00:49:29.469Z,796.84
2017-08-29T00:49:33.676Z,796.82
2017-08-29T00:49:37.764Z,796.82
2017-08-29T00:49:41.843Z,796.85
2017-08-29T00:49:46.176Z,796.82
2017-08-29T00:49:50.506Z,796.82
2017-08-29T00:49:54.953Z,796.84
2017-08-29T00:49:59.307Z,796.81
2017-08-29T00:50:03.528Z,796.82
2017-08-29T00:50:07.498Z,796.84
2017-08-29T00:50:11.709Z,796.83
2017-08-29T00:50:15.932Z,796.82
2017-08-29T00:50:20.370Z,796.81
2017-08-29T00:50:24.207Z,796.82
2017-08-29T00:50:28.298Z,796.84
2017-08-29T00:50:32.497Z,796.84
2017-08-29T00:50:36.586Z,796.83
2017-08-29T00:50:40.683Z,796.79
2017-08-29T00:50:44.886Z,796.83
2017-08-29T00:50:48.977Z,796.84
2017-08-29T00:50:53.321Z,796.85
2017-08-29T00:50:57.288Z,796.82
2017-08-29T00:51:01.236Z,796.85
2017-08-29T00:51:05.321Z,796.85
2017-08-29T00:51:09.296Z,796.85
2017-08-29T00:51:13.500Z,796.82
2017-08-29T00:51:17.847Z,796.84
2017-08-29T00:51:21.936Z,796.77
2017-08-29T00:51:26.272Z,796.76
2017-08-29T00:51:30.218Z,796.8
2017-08-29T00:51:34.310Z,796.8
2017-08-29T00:51:38.396Z,796.82
2017-08-29T00:51:42.493Z,796.8
2017-08-29T00:51:46.581Z,796.83
2017-08-29T00:51:50.682Z,796.83
2017-08-29T00:51:54.778Z,796.79
2017-08-29T00:51:58.864Z,796.81
2017-08-29T00:52:03.275Z,796.81
2017-08-29T00:52:07.362Z,796.83
2017-08-29T00:52:11.203Z,796.81
2017-08-29T00:52:15.654Z,796.8
2017-08-29T00:52:19.866Z,796.78
2017-08-29T00:52:23.964Z,796.72
2017-08-29T00:52:27.660Z,796.82
2017-08-29T00:52:31.746Z,796.81
2017-08-29T00:52:35.962Z,796.8
2017-08-29T00:52:39.918Z,796.8
2017-08-29T00:52:43.738Z,796.79
2017-08-29T00:52:48.063Z,796.8
2017-08-29T00:52:52.035Z,796.78
2017-08-29T00:52:56.115Z,796.77
2017-08-29T00:53:00.218Z,796.78